createdAt,value
2018-06-23T00:02:07.724Z,10.60
2018-06-23T00:04:35.329Z,10.60
2018-06-23T00:07:03.018Z,10.70
2018-06-23T00:09:30.683Z,10.70
2018-06-23T00:11:58.353Z,10.70
2018-06-23T00:14:25.977Z,10.70
2018-06-23T00:16:53.580Z,10.70
2018-06-23T00:19:21.216Z,10.70
2018-06-23T00:21:48.852Z,10.70
2018-06-23T00:24:16.487Z,10.70
2018-06-23T00:26:44.120Z,10.70
2018-06-23T00:29:11.760Z,10.80
2018-06-23T00:31:39.416Z,10.80
2018-06-23T00:34:08.032Z,10.80
2018-06-23T00:36:35.680Z,10.60
2018-06-23T00:41:32.875Z,10.60
2018-06-23T00:44:01.539Z,10.60
2018-06-23T00:46:30.784Z,10.50
2018-06-23T00:48:58.436Z,10.40
2018-06-23T00:51:26.044Z,10.30
2018-06-23T00:53:53.656Z,10.40
2018-06-23T00:56:21.281Z,10.40
2018-06-23T01:01:22.247Z,10.30
2018-06-23T01:03:49.886Z,10.30
2018-06-23T01:08:45.075Z,10.40
2018-06-23T01:11:12.715Z,10.50
2018-06-23T01:13:40.431Z,10.50
2018-06-23T01:16:08.279Z,10.50
2018-06-23T01:18:35.888Z,10.50
2018-06-23T01:21:03.561Z,10.50
2018-06-23T01:23:31.217Z,10.50
2018-06-23T01:25:59.864Z,10.50
2018-06-23T01:28:28.504Z,10.50
2018-06-23T01:30:56.144Z,10.50
2018-06-23T01:33:24.841Z,10.50
2018-06-23T01:35:52.481Z,10.50
2018-06-23T01:38:20.184Z,10.50
2018-06-23T01:40:47.817Z,10.50
2018-06-23T01:43:15.448Z,10.50
2018-06-23T01:45:43.120Z,10.40
2018-06-23T01:48:11.458Z,10.40
2018-06-23T01:50:39.109Z,10.40
2018-06-23T01:53:07.093Z,10.30
2018-06-23T01:55:34.692Z,10.30
2018-06-23T01:58:02.309Z,10.20
2018-06-23T02:00:30.097Z,10.10
2018-06-23T02:02:57.729Z,10.10
2018-06-23T02:05:25.524Z,10.10
2018-06-23T02:07:54.406Z,10.00
2018-06-23T02:10:22.084Z,10.00
2018-06-23T02:12:49.798Z,10.00
2018-06-23T02:15:17.488Z,10.00
2018-06-23T02:17:50.693Z,10.00
2018-06-23T02:20:23.984Z,10.10
2018-06-23T02:22:57.281Z,10.10
2018-06-23T02:25:30.592Z,10.20
2018-06-23T02:28:03.816Z,10.20
2018-06-23T02:31:34.956Z,10.20
2018-06-23T02:34:08.192Z,10.10
2018-06-23T02:36:35.818Z,9.80
2018-06-23T02:39:05.365Z,9.70
2018-06-23T02:41:33.028Z,9.70
2018-06-23T02:44:01.816Z,9.70
2018-06-23T02:46:30.501Z,9.80
2018-06-23T02:48:58.110Z,9.80
2018-06-23T02:51:25.941Z,9.80
2018-06-23T02:53:53.590Z,9.90
2018-06-23T02:56:21.869Z,9.90
2018-06-23T02:58:49.477Z,9.90
2018-06-23T03:01:18.709Z,9.90
2018-06-23T03:03:46.504Z,9.90
2018-06-23T03:06:14.122Z,9.90
2018-06-23T03:08:41.748Z,9.90
2018-06-23T03:11:09.686Z,9.90
2018-06-23T03:13:37.320Z,9.80
2018-06-23T03:16:05.704Z,9.90
2018-06-23T03:18:33.344Z,9.90
2018-06-23T03:21:01.006Z,9.70
2018-06-23T03:23:28.637Z,9.80
2018-06-23T03:25:58.260Z,9.80
2018-06-23T03:28:25.888Z,9.80
2018-06-23T03:30:53.568Z,9.80
2018-06-23T03:33:21.292Z,9.80
2018-06-23T03:35:48.908Z,9.70
2018-06-23T03:38:16.540Z,9.70
2018-06-23T03:40:44.252Z,9.60
2018-06-23T03:43:12.872Z,9.60
2018-06-23T03:45:40.484Z,9.60
2018-06-23T03:48:08.136Z,9.60
2018-06-23T03:50:35.756Z,9.60
2018-06-23T03:53:03.408Z,9.70
2018-06-23T03:55:31.168Z,9.60
2018-06-23T03:57:58.820Z,9.60
2018-06-23T04:00:26.453Z,9.60
2018-06-23T04:02:54.103Z,9.70
2018-06-23T04:05:21.768Z,9.80
2018-06-23T04:07:49.432Z,9.80
2018-06-23T04:10:17.086Z,9.90
2018-06-23T04:12:44.776Z,9.80
2018-06-23T04:15:13.380Z,9.80
2018-06-23T04:17:41.031Z,9.80
2018-06-23T04:20:08.652Z,9.90
2018-06-23T04:22:36.292Z,10.00
2018-06-23T04:25:03.932Z,10.10
2018-06-23T04:27:31.640Z,10.10
2018-06-23T04:29:59.743Z,10.10
2018-06-23T04:32:27.430Z,10.20
2018-06-23T04:34:55.045Z,10.30
2018-06-23T04:37:22.677Z,10.30
2018-06-23T04:39:50.300Z,10.30
2018-06-23T04:42:17.944Z,10.40
2018-06-23T04:44:45.549Z,10.40
2018-06-23T04:47:13.176Z,10.30
2018-06-23T04:49:40.848Z,10.30
2018-06-23T04:52:08.505Z,10.30
2018-06-23T04:54:36.108Z,10.30
2018-06-23T04:57:03.754Z,10.40
2018-06-23T04:59:31.459Z,10.50
2018-06-23T05:01:59.601Z,10.60
2018-06-23T05:04:27.257Z,10.60
2018-06-23T05:06:54.873Z,10.80
2018-06-23T05:09:22.493Z,10.80
2018-06-23T05:11:50.581Z,10.90
2018-06-23T05:14:18.209Z,10.80
2018-06-23T05:16:45.866Z,11.00
2018-06-23T05:19:15.544Z,11.10
2018-06-23T05:21:43.203Z,11.30
2018-06-23T05:24:10.820Z,11.50
2018-06-23T05:26:38.448Z,11.70
2018-06-23T05:29:06.320Z,11.60
2018-06-23T05:31:33.964Z,11.70
2018-06-23T05:34:02.373Z,11.80
2018-06-23T05:36:30.104Z,12.00
2018-06-23T05:38:57.757Z,12.00
2018-06-23T05:41:25.369Z,12.10
2018-06-23T05:43:52.998Z,12.30
2018-06-23T05:46:20.701Z,12.20
2018-06-23T05:48:48.342Z,12.20
2018-06-23T05:51:16.013Z,12.20
2018-06-23T05:53:43.583Z,12.20
2018-06-23T05:56:11.220Z,12.40
2018-06-23T05:58:38.856Z,12.60
2018-06-23T06:01:06.481Z,12.80
2018-06-23T06:03:34.129Z,12.90
2018-06-23T06:06:02.481Z,13.10
2018-06-23T06:08:30.640Z,13.10
2018-06-23T06:10:58.292Z,13.10
2018-06-23T06:13:25.944Z,13.10
2018-06-23T06:15:54.605Z,13.10
2018-06-23T06:18:22.264Z,13.20
2018-06-23T06:20:49.884Z,13.40
2018-06-23T06:23:19.307Z,13.70
2018-06-23T06:25:46.957Z,14.00
2018-06-23T06:28:14.560Z,14.40
2018-06-23T06:30:43.261Z,14.30
2018-06-23T06:33:10.892Z,14.10
2018-06-23T06:35:38.535Z,13.90
2018-06-23T06:38:06.163Z,13.70
2018-06-23T06:40:34.773Z,13.60
2018-06-23T06:43:02.417Z,13.50
2018-06-23T06:45:30.079Z,13.50
2018-06-23T06:47:57.701Z,13.70
2018-06-23T06:50:26.049Z,14.00
2018-06-23T06:52:53.738Z,14.20
2018-06-23T06:55:21.972Z,14.70
2018-06-23T06:57:49.640Z,15.10
2018-06-23T07:00:17.275Z,15.10
2018-06-23T07:02:44.896Z,15.30
2018-06-23T07:05:12.528Z,15.60
2018-06-23T07:07:40.216Z,15.50
2018-06-23T07:10:07.936Z,15.10
2018-06-23T07:12:35.581Z,15.00
2018-06-23T07:15:09.008Z,14.90
2018-06-23T07:17:36.664Z,15.00
2018-06-23T07:20:04.360Z,15.20
2018-06-23T07:22:31.992Z,15.60
2018-06-23T07:24:59.595Z,16.20
2018-06-23T07:29:56.711Z,16.50
2018-06-23T07:32:24.394Z,16.30
2018-06-23T07:34:52.315Z,16.30
2018-06-23T07:37:19.778Z,15.90
2018-06-23T07:39:47.393Z,15.80
2018-06-23T07:42:15.007Z,15.70
2018-06-23T07:44:42.627Z,15.30
2018-06-23T07:47:10.862Z,15.00
2018-06-23T07:49:39.672Z,14.80
2018-06-23T07:52:07.952Z,14.90
2018-06-23T07:54:35.601Z,15.00
2018-06-23T07:57:03.820Z,15.40
2018-06-23T07:59:31.717Z,15.70
2018-06-23T08:01:59.332Z,16.10
2018-06-23T08:04:26.963Z,16.70
2018-06-23T08:06:54.769Z,17.00
2018-06-23T08:09:24.417Z,16.80
2018-06-23T08:11:52.712Z,16.80
2018-06-23T08:14:20.375Z,16.50
2018-06-23T08:16:48.027Z,16.00
2018-06-23T08:19:15.645Z,16.00
2018-06-23T08:21:43.249Z,16.30
2018-06-23T08:24:10.895Z,16.70
2018-06-23T08:26:38.673Z,17.00
2018-06-23T08:29:06.229Z,17.10
2018-06-23T08:31:33.860Z,17.10
2018-06-23T08:36:30.464Z,16.30
2018-06-23T08:38:59.145Z,15.90
2018-06-23T08:41:27.364Z,16.00
2018-06-23T08:46:22.521Z,17.00
2018-06-23T08:48:51.152Z,17.40
2018-06-23T08:51:19.004Z,17.30
2018-06-23T08:53:46.624Z,16.50
2018-06-23T08:56:14.965Z,16.30
2018-06-23T08:58:42.593Z,15.90
2018-06-23T09:01:10.846Z,15.60
2018-06-23T09:03:38.483Z,15.30
2018-06-23T09:08:33.654Z,15.30
2018-06-23T09:11:02.304Z,15.70
2018-06-23T09:13:29.913Z,16.20
2018-06-23T09:15:57.577Z,16.60
2018-06-23T09:18:25.212Z,16.70
2018-06-23T09:20:52.882Z,16.80
2018-06-23T09:23:20.516Z,16.60
2018-06-23T09:25:48.146Z,16.30
2018-06-23T09:28:15.757Z,16.40
2018-06-23T09:30:43.460Z,16.40
2018-06-23T09:35:38.656Z,16.70
2018-06-23T09:38:06.298Z,17.40
2018-06-23T09:40:33.937Z,17.40
2018-06-23T09:43:01.559Z,17.00
2018-06-23T09:45:29.194Z,16.80
2018-06-23T09:47:56.960Z,16.90
2018-06-23T09:50:24.660Z,16.80
2018-06-23T09:52:52.256Z,16.70
2018-06-23T09:55:20.825Z,16.90
2018-06-23T09:57:48.456Z,17.60
2018-06-23T10:00:16.628Z,18.20
2018-06-23T10:02:45.524Z,18.50
2018-06-23T10:05:13.157Z,18.40
2018-06-23T10:07:40.793Z,18.50
2018-06-23T10:10:10.961Z,18.60
2018-06-23T10:12:40.132Z,18.80
2018-06-23T10:15:07.898Z,18.70
2018-06-23T10:17:36.515Z,18.50
2018-06-23T10:20:04.172Z,18.50
2018-06-23T10:22:31.909Z,19.10
2018-06-23T10:25:00.524Z,19.50
2018-06-23T10:27:28.189Z,19.60
2018-06-23T10:29:55.807Z,19.50
2018-06-23T10:32:23.920Z,19.10
2018-06-23T10:34:51.785Z,19.10
2018-06-23T10:37:19.396Z,19.10
2018-06-23T10:39:47.037Z,18.90
2018-06-23T10:42:14.644Z,19.30
2018-06-23T10:44:42.824Z,19.90
2018-06-23T10:47:10.428Z,20.10
2018-06-23T10:49:38.711Z,20.00
2018-06-23T10:52:06.337Z,19.70
2018-06-23T10:54:33.958Z,19.70
2018-06-23T10:57:01.600Z,19.60
2018-06-23T10:59:29.864Z,20.20
2018-06-23T11:01:57.488Z,20.60
2018-06-23T11:04:26.888Z,20.40
2018-06-23T11:06:56.272Z,19.70
2018-06-23T11:09:23.992Z,19.30
2018-06-23T11:11:51.611Z,19.20
2018-06-23T11:14:19.210Z,19.80
2018-06-23T11:16:46.853Z,20.20
2018-06-23T11:19:16.104Z,20.50
2018-06-23T11:21:43.711Z,20.10
2018-06-23T11:24:11.362Z,19.70
2018-06-23T11:26:38.972Z,19.50
2018-06-23T11:29:07.065Z,19.60
2018-06-23T11:31:34.656Z,19.30
2018-06-23T11:34:02.261Z,19.70
2018-06-23T11:36:29.905Z,20.40
2018-06-23T11:38:57.536Z,20.60
2018-06-23T11:41:25.683Z,20.60
2018-06-23T11:43:53.292Z,20.50
2018-06-23T11:46:20.901Z,20.30
2018-06-23T11:48:48.516Z,20.20
2018-06-23T11:51:16.133Z,20.30
2018-06-23T11:53:43.732Z,20.30
2018-06-23T11:56:11.329Z,20.80
2018-06-23T11:58:38.951Z,20.80
2018-06-23T12:01:06.594Z,20.60
2018-06-23T12:03:34.366Z,20.50
2018-06-23T12:06:02.000Z,20.90
2018-06-23T12:08:29.627Z,21.60
2018-06-23T12:10:57.273Z,22.00
2018-06-23T12:13:24.986Z,21.80
2018-06-23T12:15:52.648Z,21.10
2018-06-23T12:18:20.248Z,20.60
2018-06-23T12:20:47.865Z,20.20
2018-06-23T12:23:15.456Z,20.20
2018-06-23T12:25:43.080Z,20.20
2018-06-23T12:28:10.716Z,20.30
2018-06-23T12:30:38.320Z,20.30
2018-06-23T12:33:05.925Z,20.80
2018-06-23T12:35:33.592Z,21.00
2018-06-23T12:38:01.229Z,20.70
2018-06-23T12:40:28.977Z,20.70
2018-06-23T12:42:56.576Z,20.70
2018-06-23T12:45:24.173Z,20.70
2018-06-23T12:47:52.289Z,20.80
2018-06-23T12:50:19.894Z,20.80
2018-06-23T12:52:47.524Z,21.70
2018-06-23T12:55:15.183Z,23.10
2018-06-23T12:57:42.772Z,24.40
2018-06-23T13:00:10.648Z,25.50
2018-06-23T13:02:38.268Z,26.20
2018-06-23T13:05:06.101Z,26.20
2018-06-23T13:07:33.761Z,26.30
2018-06-23T13:10:02.400Z,26.70
2018-06-23T13:12:30.143Z,27.40
2018-06-23T13:14:57.806Z,27.70
2018-06-23T13:17:25.412Z,27.10
2018-06-23T13:19:53.017Z,26.10
2018-06-23T13:22:20.682Z,25.20
2018-06-23T13:24:48.277Z,25.60
2018-06-23T13:27:15.888Z,25.80
2018-06-23T13:29:43.525Z,26.20
2018-06-23T13:32:12.109Z,26.40
2018-06-23T13:34:39.708Z,25.30
2018-06-23T13:37:07.409Z,24.40
2018-06-23T13:39:35.151Z,24.10
2018-06-23T13:44:30.836Z,24.00
2018-06-23T13:46:58.483Z,24.00
2018-06-23T13:49:26.100Z,23.90
2018-06-23T13:54:21.245Z,25.50
2018-06-23T13:56:48.860Z,26.10
2018-06-23T13:59:17.911Z,25.90
2018-06-23T14:01:45.567Z,24.60
2018-06-23T14:04:13.272Z,24.40
2018-06-23T14:06:40.853Z,24.80
2018-06-23T14:09:10.420Z,25.00
2018-06-23T14:11:38.497Z,24.90
2018-06-23T14:14:06.169Z,25.40
2018-06-23T14:16:34.024Z,26.60
2018-06-23T14:19:01.649Z,27.50
2018-06-23T14:21:29.321Z,27.10
2018-06-23T14:23:56.961Z,25.70
2018-06-23T14:26:24.589Z,24.90
2018-06-23T14:28:52.204Z,25.10
2018-06-23T14:31:19.909Z,24.60
2018-06-23T14:33:47.470Z,23.70
2018-06-23T14:36:15.066Z,23.60
2018-06-23T14:38:42.695Z,24.80
2018-06-23T14:41:10.325Z,25.90
2018-06-23T14:43:38.602Z,26.60
2018-06-23T14:46:06.275Z,26.50
2018-06-23T14:48:34.957Z,25.40
2018-06-23T14:51:02.593Z,25.00
2018-06-23T14:53:31.257Z,25.60
2018-06-23T14:55:59.409Z,26.90
2018-06-23T14:58:27.789Z,26.80
2018-06-23T15:00:55.418Z,27.20
2018-06-23T15:03:23.073Z,28.30
2018-06-23T15:05:50.677Z,29.20
2018-06-23T15:08:29.780Z,30.10
2018-06-23T15:11:08.744Z,30.80
2018-06-23T15:13:37.060Z,30.60
2018-06-23T15:16:04.736Z,29.10
2018-06-23T15:18:32.369Z,27.50
2018-06-23T15:21:00.000Z,25.90
2018-06-23T15:23:27.640Z,25.10
2018-06-23T15:25:55.249Z,24.40
2018-06-23T15:28:22.936Z,24.00
2018-06-23T15:30:50.566Z,23.50
2018-06-23T15:33:18.193Z,23.00
2018-06-23T15:35:45.792Z,22.50
2018-06-23T15:38:13.411Z,22.10
2018-06-23T15:40:41.129Z,21.70
2018-06-23T15:43:08.729Z,21.30
2018-06-23T15:45:36.352Z,21.20
2018-06-23T15:48:04.023Z,21.00
2018-06-23T15:50:31.813Z,21.00
2018-06-23T15:52:59.477Z,20.90
2018-06-23T15:55:27.117Z,20.90
2018-06-23T15:57:54.720Z,20.80
2018-06-23T16:00:22.345Z,20.80
2018-06-23T16:02:50.952Z,20.50
2018-06-23T16:05:19.334Z,20.30
2018-06-23T16:07:47.212Z,20.00
2018-06-23T16:10:19.784Z,19.70
2018-06-23T16:12:52.244Z,19.70
2018-06-23T16:15:20.142Z,19.70
2018-06-23T16:17:47.751Z,19.70
2018-06-23T16:20:15.992Z,19.70
2018-06-23T16:22:44.208Z,19.70
2018-06-23T16:25:11.858Z,19.70
2018-06-23T16:27:39.464Z,19.70
2018-06-23T16:30:07.130Z,19.70
2018-06-23T16:32:41.429Z,19.70
2018-06-23T16:35:09.243Z,19.70
2018-06-23T16:37:36.837Z,20.00
2018-06-23T16:40:04.633Z,20.00
2018-06-23T16:42:32.556Z,20.20
2018-06-23T16:45:00.359Z,20.50
2018-06-23T16:47:28.209Z,20.60
2018-06-23T16:49:55.806Z,20.80
2018-06-23T16:52:23.404Z,21.00
2018-06-23T16:54:50.988Z,21.00
2018-06-23T16:57:18.630Z,20.90
2018-06-23T16:59:46.274Z,20.60
2018-06-23T17:02:13.932Z,20.10
2018-06-23T17:04:41.722Z,19.90
2018-06-23T17:07:09.317Z,19.70
2018-06-23T17:09:36.907Z,19.90
2018-06-23T17:12:04.581Z,20.00
2018-06-23T17:14:32.284Z,19.80
2018-06-23T17:16:59.900Z,19.80
2018-06-23T17:19:28.018Z,19.80
2018-06-23T17:21:56.259Z,19.60
2018-06-23T17:24:23.871Z,19.50
2018-06-23T17:26:51.485Z,19.50
2018-06-23T17:29:19.124Z,20.40
2018-06-23T17:34:14.265Z,19.40
2018-06-23T17:36:41.885Z,19.40
2018-06-23T17:39:10.388Z,19.30
2018-06-23T17:41:38.041Z,19.20
2018-06-23T17:44:05.713Z,19.20
2018-06-23T17:46:33.320Z,19.20
2018-06-23T17:49:00.920Z,19.10
2018-06-23T17:51:28.618Z,19.00
2018-06-23T17:53:56.217Z,18.90
2018-06-23T17:56:24.076Z,18.90
2018-06-23T17:58:51.688Z,18.80
2018-06-23T18:01:19.378Z,18.60
2018-06-23T18:03:47.002Z,18.50
2018-06-23T18:06:14.834Z,18.40
2018-06-23T18:08:42.449Z,18.30
2018-06-23T18:11:10.090Z,18.20
2018-06-23T18:13:37.676Z,18.10
2018-06-23T18:16:05.933Z,18.00
2018-06-23T18:18:33.576Z,17.80
2018-06-23T18:21:01.175Z,17.70
2018-06-23T18:23:29.770Z,17.50
2018-06-23T18:25:57.396Z,17.40
2018-06-23T18:28:24.998Z,17.30
2018-06-23T18:30:52.630Z,17.30
2018-06-23T18:33:20.340Z,17.20
2018-06-23T18:35:48.009Z,17.10
2018-06-23T18:38:15.668Z,16.90
2018-06-23T18:40:43.317Z,16.80
2018-06-23T18:43:10.941Z,16.80
2018-06-23T18:45:38.579Z,16.80
2018-06-23T18:48:06.329Z,16.70
2018-06-23T18:50:33.989Z,16.70
2018-06-23T18:53:01.594Z,16.70
2018-06-23T18:55:29.218Z,16.70
2018-06-23T18:57:56.873Z,16.60
2018-06-23T19:00:24.517Z,16.50
2018-06-23T19:02:52.148Z,16.50
2018-06-23T19:05:20.371Z,16.50
2018-06-23T19:07:48.017Z,16.40
2018-06-23T19:10:16.239Z,16.50
2018-06-23T19:12:43.904Z,16.40
2018-06-23T19:15:11.540Z,16.40
2018-06-23T19:17:39.221Z,16.30
2018-06-23T19:20:06.929Z,16.40
2018-06-23T19:22:35.129Z,16.30
2018-06-23T19:25:02.829Z,16.20
2018-06-23T19:27:30.519Z,16.20
2018-06-23T19:29:58.784Z,16.10
2018-06-23T19:32:26.379Z,16.20
2018-06-23T19:34:54.017Z,16.00
2018-06-23T19:37:21.629Z,15.90
2018-06-23T19:39:49.261Z,15.90
2018-06-23T19:42:16.893Z,15.80
2018-06-23T19:44:44.500Z,15.80
2018-06-23T19:47:12.140Z,15.80
2018-06-23T19:49:39.793Z,15.80
2018-06-23T19:52:07.492Z,15.80
2018-06-23T19:54:36.115Z,15.80
2018-06-23T19:57:04.140Z,15.80
2018-06-23T19:59:31.792Z,15.70
2018-06-23T20:01:59.464Z,15.60
2018-06-23T20:04:27.108Z,15.60
2018-06-23T20:06:54.768Z,15.60
2018-06-23T20:09:22.400Z,15.60
2018-06-23T20:11:50.080Z,15.60
2018-06-23T20:14:17.729Z,15.60
2018-06-23T20:16:45.333Z,15.60
2018-06-23T20:19:13.715Z,15.70
2018-06-23T20:21:41.376Z,15.60
2018-06-23T20:24:09.027Z,15.60
2018-06-23T20:26:36.680Z,15.60
2018-06-23T20:29:04.437Z,15.50
2018-06-23T20:31:32.182Z,15.50
2018-06-23T20:33:59.788Z,15.40
2018-06-23T20:36:27.413Z,15.40
2018-06-23T20:38:55.044Z,15.30
2018-06-23T20:41:22.680Z,15.40
2018-06-23T20:43:50.288Z,15.40
2018-06-23T20:46:18.507Z,15.30
2018-06-23T20:48:46.172Z,15.30
2018-06-23T20:51:14.565Z,15.30
2018-06-23T20:53:42.605Z,15.30
2018-06-23T20:56:10.217Z,15.20
2018-06-23T20:58:37.848Z,15.20
2018-06-23T21:01:05.587Z,15.10
2018-06-23T21:03:33.129Z,15.20
2018-06-23T21:06:00.820Z,15.10
2018-06-23T21:08:28.456Z,15.10
2018-06-23T21:10:56.061Z,15.10
2018-06-23T21:13:23.697Z,15.10
2018-06-23T21:15:52.109Z,15.00
2018-06-23T21:18:19.800Z,15.00
2018-06-23T21:20:47.869Z,15.00
2018-06-23T21:23:15.489Z,15.00
2018-06-23T21:25:43.127Z,14.90
2018-06-23T21:28:10.825Z,14.90
2018-06-23T21:30:38.468Z,14.80
2018-06-23T21:33:06.033Z,14.80
2018-06-23T21:35:33.732Z,14.70
2018-06-23T21:38:01.368Z,14.60
2018-06-23T21:40:30.030Z,14.40
2018-06-23T21:42:57.693Z,14.30
2018-06-23T21:45:25.296Z,14.20
2018-06-23T21:47:53.532Z,14.10
2018-06-23T21:50:21.217Z,14.20
2018-06-23T21:52:48.865Z,14.20
2018-06-23T21:55:16.540Z,14.20
2018-06-23T21:57:44.170Z,14.30
2018-06-23T22:00:21.965Z,14.30
2018-06-23T22:02:49.584Z,14.10
2018-06-23T22:05:17.220Z,13.90
2018-06-23T22:07:44.868Z,13.90
2018-06-23T22:10:13.101Z,13.80
2018-06-23T22:12:40.724Z,13.70
2018-06-23T22:15:08.322Z,13.70
2018-06-23T22:17:36.610Z,13.60
2018-06-23T22:20:04.284Z,13.60
2018-06-23T22:22:31.929Z,13.50
2018-06-23T22:25:00.989Z,13.40
2018-06-23T22:27:28.604Z,13.30
2018-06-23T22:29:56.244Z,13.30
2018-06-23T22:32:23.874Z,13.30
2018-06-23T22:34:51.528Z,13.30
2018-06-23T22:37:19.144Z,13.40
2018-06-23T22:39:46.940Z,13.50
2018-06-23T22:42:14.649Z,13.50
2018-06-23T22:44:42.991Z,13.40
2018-06-23T22:47:10.652Z,13.30
2018-06-23T22:49:38.283Z,13.30
2018-06-23T22:52:05.908Z,13.30
2018-06-23T22:54:34.120Z,13.10
2018-06-23T22:57:01.912Z,13.20
2018-06-23T22:59:29.720Z,13.30
2018-06-23T23:01:58.421Z,13.20
2018-06-23T23:04:26.094Z,13.30
2018-06-23T23:06:53.732Z,13.30
2018-06-23T23:09:21.369Z,13.30
2018-06-23T23:11:50.314Z,13.40
2018-06-23T23:14:17.966Z,13.30
2018-06-23T23:16:45.628Z,13.40
2018-06-23T23:19:13.265Z,13.50
2018-06-23T23:21:40.889Z,13.50
2018-06-23T23:24:08.640Z,13.50
2018-06-23T23:26:36.492Z,13.40
2018-06-23T23:29:04.817Z,13.30
2018-06-23T23:31:32.492Z,13.30
2018-06-23T23:36:27.657Z,13.20
2018-06-23T23:38:55.345Z,13.00
2018-06-23T23:41:23.572Z,12.90
2018-06-23T23:43:51.162Z,12.90
2018-06-23T23:46:18.795Z,13.00
2018-06-23T23:48:46.401Z,12.90
2018-06-23T23:51:14.029Z,12.90
2018-06-23T23:53:41.672Z,12.80
2018-06-23T23:56:09.328Z,13.00
2018-06-23T23:58:36.943Z,13.00
